Terminal Aerodrome Forecast
Issued by NWS

Current Version | Previous Version | Text Only | Print | Product List | Glossary On
Versions: 1 2 3 4 5 6 7 8 9 10 11 12 13 14 15 16 17 18 19 20 21 22 23
717
FTUS43 KAPX 140731 AAA
TAFAPN
TAF AMD
KAPN 140731Z 1408/1506 VRB03KT P6SM OVC040
      TEMPO 1408/1410 4SM -SHSN BKN022 OVC040
     FM141200 VRB03KT P6SM SKC
     FM141600 17006KT P6SM SKC
     FM150500 17007KT P6SM OVC080=

USA.gov is the U.S. government's official web portal to all federal, state and local government web resources and services.